Time;durP1;ratioP1;P1;durP2;ratioP2;P2;SDS_P1;SDS_P2;PMS_P1;PMS_P2;Temp;Humidity;BMP_temperature;BMP_pressure;BME280_temperature;BME280_humidity;BME280_pressure;Samples;Min_cycle;Max_cycle;Signal;HPM_P1;HPM_P2
2022/09/28 00:04:05;;;;;;;30.10;17.10;;;21.30;76.40;;;;;;220631;1268;25403;-50
2022/09/28 00:09:09;;;;;;;35.10;17.40;;;21.30;76.30;;;;;;220433;1267;22772;-51
2022/09/28 00:14:14;;;;;;;30.30;17.70;;;21.30;76.70;;;;;;220594;1267;25207;-49
2022/09/28 00:19:18;;;;;;;30.10;17.30;;;21.30;76.60;;;;;;220730;1268;24211;-50
2022/09/28 00:24:26;;;;;;;34.30;17.20;;;21.30;76.70;;;;;;220724;1267;22548;-49
2022/09/28 00:29:35;;;;;;;30.60;16.80;;;21.30;76.70;;;;;;220329;1267;24377;-51
2022/09/28 00:34:44;;;;;;;33.10;17.30;;;21.30;77.00;;;;;;220169;1267;22558;-53
2022/09/28 00:39:49;;;;;;;32.70;16.80;;;21.30;76.70;;;;;;225529;1270;24342;-51
2022/09/28 00:44:54;;;;;;;32.20;16.50;;;21.30;76.60;;;;;;219854;1267;25239;-51
2022/09/28 00:50:24;;;;;;;30.30;15.00;;;21.30;76.40;;;;;;220820;1267;26587;-50
2022/09/28 00:55:50;;;;;;;29.20;15.90;;;21.30;76.00;;;;;;220615;1268;24062;-53
2022/09/28 01:00:55;;;;;;;24.80;14.60;;;21.30;76.60;;;;;;220154;1270;24279;-51
2022/09/28 01:06:02;;;;;;;26.90;14.50;;;21.20;76.10;;;;;;220347;1270;22764;-51
2022/09/28 01:11:06;;;;;;;28.60;16.10;;;21.20;76.00;;;;;;220311;1270;22657;-53
2022/09/28 01:16:37;;;;;;;28.90;15.10;;;21.20;76.10;;;;;;220697;1268;22557;-50
2022/09/28 01:22:18;;;;;;;27.30;15.80;;;21.20;75.70;;;;;;220690;1267;24415;-54
2022/09/28 01:27:28;;;;;;;23.60;13.80;;;21.20;75.60;;;;;;220626;1267;25236;-52
2022/09/28 01:32:54;;;;;;;24.00;14.10;;;21.10;75.30;;;;;;220662;1270;22583;-49
2022/09/28 01:38:00;;;;;;;23.60;13.90;;;21.10;75.30;;;;;;220610;1267;24292;-53
2022/09/28 01:43:28;;;;;;;23.90;13.10;;;21.10;75.20;;;;;;220668;1267;24380;-52
2022/09/28 01:48:38;;;;;;;24.00;13.60;;;21.10;75.20;;;;;;220450;1267;24290;-51
2022/09/28 01:53:49;;;;;;;21.20;13.80;;;21.10;74.90;;;;;;220492;1268;22547;-50
2022/09/28 01:59:01;;;;;;;20.50;12.70;;;21.10;74.90;;;;;;220270;1267;25724;-54
2022/09/28 02:04:31;;;;;;;20.70;12.50;;;21.00;74.80;;;;;;220391;1270;25353;-51
2022/09/28 02:09:42;;;;;;;22.30;12.20;;;21.00;74.80;;;;;;220398;1271;22686;-56
2022/09/28 02:14:48;;;;;;;21.50;12.60;;;21.00;74.60;;;;;;220710;1267;22544;-53
2022/09/28 02:19:55;;;;;;;22.40;12.90;;;21.00;74.60;;;;;;220546;1268;25242;-49
2022/09/28 02:25:29;;;;;;;19.90;12.70;;;21.00;74.60;;;;;;220366;1268;25387;-49
2022/09/28 02:30:36;;;;;;;19.80;12.20;;;20.90;74.80;;;;;;220292;1271;23915;-53
2022/09/28 02:35:41;;;;;;;19.70;11.70;;;21.00;74.60;;;;;;220594;1271;25245;-52
2022/09/28 02:40:56;;;;;;;22.50;11.70;;;20.90;74.10;;;;;;220617;1270;25254;-50
2022/09/28 02:46:30;;;;;;;20.60;12.40;;;20.90;74.20;;;;;;220658;1270;25388;-48
2022/09/28 02:52:06;;;;;;;18.40;10.90;;;20.90;74.60;;;;;;220440;1268;24365;-50
2022/09/28 02:57:30;;;;;;;21.80;11.00;;;20.90;74.50;;;;;;220659;1268;22566;-52
2022/09/28 03:02:42;;;;;;;20.50;11.60;;;20.80;74.10;;;;;;220599;1268;26470;-52
2022/09/28 03:08:02;;;;;;;16.90;10.60;;;20.80;74.80;;;;;;220271;1269;25237;-52
2022/09/28 03:13:07;;;;;;;18.70;10.90;;;20.80;74.30;;;;;;220112;1270;22619;-52
2022/09/28 03:18:11;;;;;;;19.00;10.70;;;20.80;74.60;;;;;;220546;1270;22630;-51
2022/09/28 03:23:16;;;;;;;16.80;10.20;;;20.80;74.30;;;;;;220538;1268;22568;-50
2022/09/28 03:28:28;;;;;;;;;;;20.80;74.20;;;;;;220700;1270;24293;-54
2022/09/28 03:33:33;;;;;;;18.20;10.40;;;20.80;74.20;;;;;;220640;1269;22597;-53
2022/09/28 03:38:37;;;;;;;16.10;10.00;;;20.70;74.30;;;;;;220584;1270;24219;-52
2022/09/28 03:43:42;;;;;;;18.20;10.00;;;20.70;74.30;;;;;;220655;1268;22577;-57
2022/09/28 03:48:47;;;;;;;16.50;9.40;;;20.70;74.40;;;;;;220798;1268;22535;-51
2022/09/28 03:53:51;;;;;;;14.30;8.60;;;20.70;74.10;;;;;;220554;1270;23937;-52
2022/09/28 03:58:54;;;;;;;15.40;8.70;;;20.90;74.60;;;;;;221138;1267;22560;-54
2022/09/28 04:03:58;;;;;;;15.70;8.80;;;21.20;73.00;;;;;;221024;1269;22531;-52
2022/09/28 04:09:02;;;;;;;15.90;8.90;;;21.40;72.00;;;;;;220331;1268;22542;-52
2022/09/28 04:14:05;;;;;;;14.50;9.20;;;21.50;71.80;;;;;;220885;1268;25243;-53
2022/09/28 04:19:09;;;;;;;15.50;9.00;;;21.60;71.30;;;;;;220768;1268;22554;-49
2022/09/28 04:24:32;;;;;;;15.10;8.50;;;21.70;71.00;;;;;;220601;1268;22554;-55
2022/09/28 04:29:37;;;;;;;14.00;8.90;;;21.70;70.80;;;;;;220635;1268;25232;-50
2022/09/28 04:34:41;;;;;;;21.60;8.90;;;21.70;70.70;;;;;;220763;1268;22573;-52
2022/09/28 04:39:47;;;;;;;15.50;8.00;;;21.60;71.10;;;;;;220136;1268;22544;-51
2022/09/28 04:44:55;;;;;;;13.70;8.60;;;21.60;71.30;;;;;;220718;1268;24313;-53
2022/09/28 04:49:59;;;;;;;13.20;8.50;;;21.60;71.70;;;;;;220701;1268;23466;-52
2022/09/28 04:55:10;;;;;;;12.40;8.20;;;21.60;72.10;;;;;;220142;1268;22597;-48
2022/09/28 05:00:15;;;;;;;14.40;7.70;;;21.60;71.70;;;;;;220197;1268;22556;-54
2022/09/28 05:05:32;;;;;;;19.40;8.30;;;21.50;71.50;;;;;;220487;1268;23947;-51
2022/09/28 05:11:01;;;;;;;13.70;7.40;;;21.60;71.90;;;;;;220345;1268;22579;-50
2022/09/28 05:16:04;;;;;;;12.80;7.90;;;21.60;71.70;;;;;;220516;1267;25426;-51
2022/09/28 05:21:15;;;;;;;13.60;8.00;;;21.50;71.30;;;;;;220525;1268;25242;-53
2022/09/28 05:26:18;;;;;;;14.50;8.20;;;21.60;72.00;;;;;;220479;1268;22533;-50
2022/09/28 05:31:31;;;;;;;13.40;7.20;;;21.50;71.30;;;;;;220122;1268;25242;-52
2022/09/28 05:36:47;;;;;;;11.40;7.10;;;21.50;71.40;;;;;;220368;1268;22534;-53
2022/09/28 05:41:52;;;;;;;12.70;7.40;;;21.50;71.40;;;;;;220684;1268;22561;-51
2022/09/28 05:46:56;;;;;;;10.10;6.80;;;21.50;71.30;;;;;;220676;1267;24207;-50
2022/09/28 05:52:00;;;;;;;12.30;7.60;;;21.50;71.50;;;;;;220424;1267;22488;-50
2022/09/28 05:57:06;;;;;;;14.20;6.90;;;21.50;71.20;;;;;;220808;1267;22540;-52
2022/09/28 06:02:12;;;;;;;11.70;7.20;;;21.50;71.40;;;;;;220413;1267;22550;-53
2022/09/28 06:07:17;;;;;;;12.10;6.70;;;21.50;71.20;;;;;;220316;1268;24293;-54
2022/09/28 06:12:24;;;;;;;11.10;7.20;;;21.50;71.10;;;;;;220668;1268;26474;-51
2022/09/28 06:17:49;;;;;;;11.50;7.10;;;21.50;71.40;;;;;;220826;1267;25471;-51
2022/09/28 06:23:24;;;;;;;13.60;7.10;;;21.50;71.00;;;;;;220573;1267;22577;-52
2022/09/28 06:28:51;;;;;;;10.80;6.70;;;21.50;71.10;;;;;;220629;1268;24313;-50
2022/09/28 06:34:00;;;;;;;10.00;6.30;;;21.50;70.90;;;;;;221052;1268;25355;-49
2022/09/28 06:39:06;;;;;;;12.20;6.70;;;21.60;70.80;;;;;;220690;1268;23229;-52
2022/09/28 06:44:11;;;;;;;9.10;5.80;;;21.60;70.70;;;;;;220714;1268;22535;-50
2022/09/28 06:49:54;;;;;;;10.70;6.60;;;21.60;70.70;;;;;;220853;1268;24557;-55
2022/09/28 06:55:33;;;;;;;12.30;6.40;;;21.60;70.70;;;;;;220294;1267;22538;-53
2022/09/28 07:00:39;;;;;;;13.40;6.30;;;21.70;71.00;;;;;;220522;1267;22541;-55
2022/09/28 07:05:47;;;;;;;11.40;6.30;;;21.70;70.70;;;;;;220703;1268;24258;-49
2022/09/28 07:11:13;;;;;;;9.60;5.40;;;21.80;70.60;;;;;;220616;1267;26508;-54
2022/09/28 07:16:25;;;;;;;10.00;6.00;;;21.70;70.90;;;;;;220346;1267;23946;-54
2022/09/28 07:21:43;;;;;;;12.70;5.80;;;21.70;71.40;;;;;;220371;1267;22531;-54
2022/09/28 07:26:50;;;;;;;10.40;5.20;;;21.70;71.70;;;;;;220221;1267;24218;-52
2022/09/28 07:32:04;;;;;;;11.10;5.50;;;21.80;71.50;;;;;;220498;1267;22651;-54
2022/09/28 07:37:31;;;;;;;8.50;5.60;;;21.80;71.50;;;;;;219734;1267;22705;-52
2022/09/28 07:42:37;;;;;;;9.20;5.50;;;21.80;71.70;;;;;;220042;1268;22545;-53
2022/09/28 07:47:42;;;;;;;10.40;5.40;;;21.70;71.80;;;;;;220214;1267;23014;-52
2022/09/28 07:53:04;;;;;;;10.50;5.40;;;21.70;71.90;;;;;;220097;1267;25337;-54
2022/09/28 07:58:31;;;;;;;8.00;5.30;;;21.60;72.30;;;;;;220436;1267;24263;-53
2022/09/28 08:03:59;;;;;;;10.60;5.70;;;21.60;71.90;;;;;;219489;1270;25361;-49
2022/09/28 08:09:06;;;;;;;14.30;5.80;;;21.70;72.10;;;;;;219886;1269;22544;-51
2022/09/28 08:14:34;;;;;;;14.30;4.70;;;21.80;71.70;;;;;;220135;1268;22641;-54
2022/09/28 08:25:23;;;;;;;18.80;5.40;;;21.80;72.00;;;;;;220330;1267;24414;-52
2022/09/28 08:30:28;;;;;;;10.70;4.70;;;21.80;72.10;;;;;;219830;1268;24313;-55
2022/09/28 08:35:57;;;;;;;14.00;4.30;;;21.90;72.10;;;;;;220088;1268;25346;-52
2022/09/28 08:41:59;;;;;;;10.60;4.40;;;21.90;71.50;;;;;;220079;1268;25526;-53
2022/09/28 08:53:21;;;;;;;15.80;4.20;;;21.90;71.90;;;;;;219917;1268;22528;-52
2022/09/28 08:58:40;;;;;;;9.80;4.10;;;21.90;71.80;;;;;;219652;1268;25163;-54
2022/09/28 09:03:47;;;;;;;10.10;4.70;;;21.90;72.10;;;;;;219569;1268;25367;-54
2022/09/28 09:09:13;;;;;;;8.40;4.60;;;21.90;72.00;;;;;;220026;1267;25347;-52
2022/09/28 09:14:30;;;;;;;10.50;3.70;;;21.90;72.10;;;;;;219988;1267;22584;-53
2022/09/28 09:19:51;;;;;;;8.20;4.30;;;22.00;71.90;;;;;;220257;1267;22591;-52
2022/09/28 09:25:41;;;;;;;12.50;4.80;;;22.00;71.90;;;;;;219602;1267;25376;-55
2022/09/28 09:31:02;;;;;;;8.60;4.30;;;22.10;71.80;;;;;;219759;1268;22608;-53
2022/09/28 09:36:29;;;;;;;10.80;4.50;;;22.10;71.80;;;;;;219600;1267;22537;-51
2022/09/28 09:42:19;;;;;;;11.10;4.80;;;22.10;71.60;;;;;;219284;1268;22545;-57
2022/09/28 09:47:53;;;;;;;11.30;4.20;;;22.10;71.50;;;;;;219457;1267;22630;-53
2022/09/28 09:53:06;;;;;;;7.60;3.60;;;22.00;71.40;;;;;;227777;1267;22256;-56
2022/09/28 09:58:17;;;;;;;5.60;3.30;;;22.00;71.30;;;;;;227783;1267;22483;-56
2022/09/28 10:03:31;;;;;;;6.60;4.10;;;22.00;71.30;;;;;;221099;1267;23403;-57
2022/09/28 10:08:49;;;;;;;9.70;3.70;;;22.00;70.90;;;;;;219893;1267;22543;-57
2022/09/28 10:13:54;;;;;;;8.40;4.10;;;22.00;70.90;;;;;;219995;1268;22557;-47
2022/09/28 10:19:20;;;;;;;9.80;4.60;;;22.10;71.00;;;;;;220263;1267;23068;-55
2022/09/28 10:24:46;;;;;;;7.80;3.30;;;22.00;71.10;;;;;;220133;1267;25314;-55
2022/09/28 10:30:01;;;;;;;11.30;4.10;;;22.00;71.10;;;;;;220029;1267;24367;-58
2022/09/28 10:35:26;;;;;;;5.40;3.30;;;22.10;70.90;;;;;;219864;1268;22532;-53
2022/09/28 10:40:48;;;;;;;6.50;3.80;;;22.10;70.50;;;;;;220171;1267;24037;-57
2022/09/28 10:46:10;;;;;;;7.50;3.70;;;22.10;70.90;;;;;;219980;1267;165199;-56
2022/09/28 10:51:16;;;;;;;10.00;4.00;;;22.10;70.50;;;;;;219799;1267;25494;-57
2022/09/28 10:56:22;;;;;;;6.80;3.50;;;22.10;70.40;;;;;;220256;1267;25543;-58
2022/09/28 11:01:32;;;;;;;7.90;2.80;;;22.10;70.40;;;;;;220065;1267;24220;-50
2022/09/28 11:06:41;;;;;;;11.70;3.20;;;22.10;70.00;;;;;;220462;1267;24356;-55
2022/09/28 11:11:46;;;;;;;8.30;3.20;;;22.00;70.50;;;;;;220448;1266;22640;-54
2022/09/28 11:17:14;;;;;;;11.80;3.40;;;22.00;70.10;;;;;;220476;1267;23911;-48
2022/09/28 11:22:33;;;;;;;8.20;3.60;;;22.00;70.50;;;;;;220231;1267;24282;-54
2022/09/28 11:27:41;;;;;;;8.30;3.00;;;21.90;70.20;;;;;;219829;1267;25350;-48
2022/09/28 11:32:46;;;;;;;11.70;3.20;;;21.90;70.40;;;;;;222189;1267;22556;-47
2022/09/28 11:38:06;;;;;;;4.70;2.80;;;21.90;70.00;;;;;;220252;1267;22558;-52
2022/09/28 11:44:06;;;;;;;7.90;3.60;;;21.90;70.20;;;;;;219008;1274;24313;-50
2022/09/28 11:49:21;;;;;;;;;;;21.80;69.80;;;;;;219668;1267;22506;-55
2022/09/28 11:54:41;;;;;;;5.60;2.70;;;21.90;69.80;;;;;;220411;1268;22535;-54
2022/09/28 11:59:56;;;;;;;8.70;3.30;;;21.80;70.00;;;;;;220294;1268;22541;-52
2022/09/28 12:05:23;;;;;;;7.40;3.30;;;21.80;70.10;;;;;;220034;1267;24235;-52
2022/09/28 12:10:39;;;;;;;6.90;2.40;;;21.80;70.90;;;;;;220394;1267;23270;-63
2022/09/28 12:15:51;;;;;;;12.30;3.20;;;21.80;71.00;;;;;;219854;1269;22699;-52
2022/09/28 12:21:17;;;;;;;9.30;3.10;;;21.80;71.40;;;;;;220008;1268;24246;-51
2022/09/28 12:26:32;;;;;;;5.80;2.60;;;21.80;72.70;;;;;;219985;1268;25350;-48
2022/09/28 12:31:54;;;;;;;7.40;3.40;;;21.80;71.70;;;;;;220067;1267;25363;-54
2022/09/28 12:37:34;;;;;;;9.60;2.90;;;21.80;72.00;;;;;;219747;1268;22553;-55
2022/09/28 12:43:02;;;;;;;9.80;3.30;;;21.80;72.20;;;;;;219950;1268;22509;-53
2022/09/28 12:48:47;;;;;;;6.00;3.00;;;21.80;72.40;;;;;;220093;1267;24222;-47
2022/09/28 12:54:17;;;;;;;9.00;3.00;;;21.80;73.40;;;;;;219917;1266;22546;-49
2022/09/28 12:59:35;;;;;;;8.10;3.00;;;21.80;75.20;;;;;;220313;1268;25304;-59
2022/09/28 13:04:43;;;;;;;8.20;3.60;;;21.80;76.40;;;;;;220147;1267;22530;-56
2022/09/28 13:10:00;;;;;;;18.30;3.40;;;21.80;75.90;;;;;;220256;1267;22597;-53
2022/09/28 13:15:22;;;;;;;6.00;3.70;;;21.80;75.50;;;;;;220189;1267;24192;-53
2022/09/28 13:20:25;;;;;;;11.00;3.90;;;21.80;76.20;;;;;;219890;1267;25051;-54
2022/09/28 13:25:33;;;;;;;9.10;3.60;;;21.90;76.10;;;;;;220062;1268;22535;-54
2022/09/28 13:30:39;;;;;;;7.50;3.40;;;21.80;75.40;;;;;;220252;1267;24403;-50
2022/09/28 13:35:43;;;;;;;7.30;2.80;;;21.80;75.10;;;;;;220443;1268;22545;-57
2022/09/28 13:41:04;;;;;;;6.30;2.90;;;21.80;74.50;;;;;;220578;1267;26598;-53
2022/09/28 13:46:36;;;;;;;9.80;3.10;;;21.80;74.60;;;;;;220591;1267;23101;-56
2022/09/28 13:51:45;;;;;;;6.90;2.80;;;21.80;74.40;;;;;;220344;1267;23919;-56
2022/09/28 13:57:09;;;;;;;8.40;3.20;;;21.80;74.00;;;;;;220108;1267;25231;-57
2022/09/28 14:02:25;;;;;;;7.10;2.70;;;21.80;73.70;;;;;;219987;1270;23071;-56
2022/09/28 14:07:35;;;;;;;7.70;2.70;;;21.70;73.50;;;;;;220176;1269;24310;-57
2022/09/28 14:12:52;;;;;;;8.30;2.50;;;21.70;73.30;;;;;;220235;1267;23700;-57
2022/09/28 14:18:07;;;;;;;7.60;2.70;;;21.70;73.50;;;;;;220085;1270;24726;-53
2022/09/28 14:23:50;;;;;;;8.30;2.30;;;21.70;73.40;;;;;;220052;1267;24303;-50
2022/09/28 14:29:20;;;;;;;8.70;2.40;;;21.80;72.80;;;;;;220587;1267;25469;-53
2022/09/28 14:35:15;;;;;;;7.60;2.60;;;21.80;72.80;;;;;;220425;1267;22852;-54
2022/09/28 14:46:18;;;;;;;4.70;2.40;;;21.70;72.40;;;;;;220144;1267;22687;-52
2022/09/28 14:51:25;;;;;;;6.00;2.20;;;21.70;72.40;;;;;;220548;1267;22625;-49
2022/09/28 14:56:52;;;;;;;6.40;2.50;;;21.70;72.30;;;;;;220556;1267;22551;-51
2022/09/28 15:02:17;;;;;;;5.10;2.60;;;21.70;72.00;;;;;;220295;1267;25237;-50
2022/09/28 15:07:28;;;;;;;9.60;2.70;;;21.70;72.00;;;;;;220826;1267;23160;-52
2022/09/28 15:12:32;;;;;;;4.70;2.40;;;21.80;72.00;;;;;;220723;1267;24383;-48
2022/09/28 15:17:40;;;;;;;7.60;2.60;;;21.80;71.60;;;;;;220568;1267;22745;-50
2022/09/28 15:22:47;;;;;;;7.10;2.50;;;21.80;72.20;;;;;;220513;1267;22627;-48
2022/09/28 15:28:15;;;;;;;5.10;2.50;;;21.80;71.60;;;;;;220539;1268;22532;-52
2022/09/28 15:39:11;;;;;;;7.40;2.50;;;21.80;71.60;;;;;;220400;1267;25510;-53
2022/09/28 15:44:14;;;;;;;5.10;2.30;;;21.80;72.00;;;;;;220511;1267;22528;-51
2022/09/28 15:49:47;;;;;;;6.00;2.40;;;21.80;71.80;;;;;;220498;1267;22528;-49
2022/09/28 15:54:56;;;;;;;10.90;2.90;;;21.80;71.80;;;;;;220699;1267;24212;-50
2022/09/28 16:00:06;;;;;;;6.00;2.00;;;21.90;71.50;;;;;;220809;1268;24501;-54
2022/09/28 16:06:01;;;;;;;5.00;2.30;;;21.80;71.80;;;;;;220262;1267;22556;-47
2022/09/28 16:11:28;;;;;;;6.20;2.80;;;21.80;71.90;;;;;;219029;1274;24687;-52
2022/09/28 16:16:51;;;;;;;5.60;2.00;;;21.80;72.10;;;;;;220283;1270;22561;-49
2022/09/28 16:22:01;;;;;;;4.60;2.40;;;21.80;72.60;;;;;;220681;1267;26590;-51
2022/09/28 16:27:40;;;;;;;8.40;3.00;;;21.80;72.80;;;;;;220297;1268;22532;-48
2022/09/28 16:33:00;;;;;;;5.80;2.80;;;21.80;73.00;;;;;;220707;1267;24057;-52
2022/09/28 16:38:13;;;;;;;11.30;4.10;;;21.90;72.70;;;;;;220449;1267;25465;-48
2022/09/28 16:43:35;;;;;;;7.60;3.60;;;21.80;73.60;;;;;;220655;1267;22710;-48
2022/09/28 16:48:47;;;;;;;4.90;3.30;;;21.90;72.60;;;;;;220503;1268;24373;-51
2022/09/28 16:59:14;;;;;;;7.90;3.30;;;21.80;71.90;;;;;;220645;1267;25305;-47
2022/09/28 17:04:18;;;;;;;5.70;3.20;;;21.80;71.90;;;;;;220525;1267;22550;-47
2022/09/28 17:09:22;;;;;;;6.60;3.20;;;21.80;71.60;;;;;;220485;1267;25239;-52
2022/09/28 17:14:27;;;;;;;4.50;2.80;;;21.80;71.30;;;;;;220617;1267;22551;-48
2022/09/28 17:19:34;;;;;;;7.20;2.60;;;21.80;71.40;;;;;;220750;1268;24360;-49
2022/09/28 17:24:38;;;;;;;8.20;3.30;;;21.80;71.20;;;;;;220553;1267;23091;-51
2022/09/28 17:29:42;;;;;;;10.70;3.60;;;21.70;71.20;;;;;;220254;1267;22548;-47
2022/09/28 17:34:49;;;;;;;10.90;3.40;;;21.80;71.10;;;;;;220211;1268;24328;-51
2022/09/28 17:40:27;;;;;;;6.50;2.60;;;21.70;71.10;;;;;;220708;1267;25238;-53
2022/09/28 17:45:38;;;;;;;10.20;2.70;;;21.70;71.10;;;;;;220711;1267;22699;-50
2022/09/28 17:50:45;;;;;;;5.40;2.70;;;21.70;71.00;;;;;;220855;1268;22559;-48
2022/09/28 17:55:49;;;;;;;6.70;2.50;;;21.70;71.00;;;;;;220635;1265;22548;-47
2022/09/28 18:00:54;;;;;;;8.10;2.90;;;21.70;71.00;;;;;;220605;1265;22603;-46
2022/09/28 18:06:05;;;;;;;11.90;3.80;;;21.80;71.20;;;;;;220558;1267;22736;-54
2022/09/28 18:11:12;;;;;;;7.90;3.40;;;21.80;71.50;;;;;;220709;1268;22596;-48
2022/09/28 18:16:21;;;;;;;12.30;3.30;;;22.10;70.80;;;;;;220403;1267;24269;-48
2022/09/28 18:21:33;;;;;;;10.20;3.20;;;21.80;70.40;;;;;;220533;1267;22820;-46
2022/09/28 18:26:36;;;;;;;9.80;3.30;;;21.80;70.60;;;;;;220299;1267;23949;-52
2022/09/28 18:31:41;;;;;;;13.30;3.60;;;21.80;70.90;;;;;;220602;1268;24303;-47
2022/09/28 18:36:57;;;;;;;9.50;2.80;;;21.80;70.60;;;;;;220250;1267;25130;-47
2022/09/28 18:42:08;;;;;;;6.70;2.70;;;21.80;70.80;;;;;;220369;1268;22682;-48
2022/09/28 18:47:26;;;;;;;10.00;3.00;;;21.80;70.80;;;;;;220197;1267;23928;-45
2022/09/28 18:52:42;;;;;;;7.90;3.20;;;21.70;70.90;;;;;;220283;1270;22576;-49
2022/09/28 18:57:47;;;;;;;8.00;2.80;;;21.70;70.70;;;;;;220583;1267;22550;-47
2022/09/28 19:03:04;;;;;;;20.40;3.50;;;21.70;70.60;;;;;;220570;1267;22618;-54
2022/09/28 19:08:44;;;;;;;13.10;3.40;;;21.80;70.80;;;;;;220562;1268;23917;-50
2022/09/28 19:14:04;;;;;;;7.70;2.70;;;21.70;70.50;;;;;;220367;1267;23016;-51
2022/09/28 19:19:20;;;;;;;6.20;3.10;;;21.70;70.00;;;;;;220221;1267;22613;-53
2022/09/28 19:24:32;;;;;;;9.10;3.10;;;21.60;70.10;;;;;;220404;1267;25612;-51
2022/09/28 19:29:43;;;;;;;8.60;3.60;;;21.60;69.80;;;;;;220402;1267;25526;-50
2022/09/28 19:34:53;;;;;;;6.70;2.80;;;21.50;70.40;;;;;;220670;1267;22598;-47
2022/09/28 19:40:04;;;;;;;10.10;3.20;;;21.50;69.50;;;;;;220362;1268;25935;-49
2022/09/28 19:45:09;;;;;;;8.20;3.00;;;21.40;69.90;;;;;;220362;1267;25663;-53
2022/09/28 19:50:13;;;;;;;5.20;2.40;;;21.40;69.80;;;;;;220441;1267;22554;-53
2022/09/28 19:55:19;;;;;;;10.20;3.20;;;21.40;69.80;;;;;;220408;1270;24292;-51
2022/09/28 20:00:28;;;;;;;9.00;3.10;;;21.40;69.90;;;;;;220494;1268;22723;-49
2022/09/28 20:05:31;;;;;;;9.20;3.00;;;21.40;70.00;;;;;;220421;1269;22515;-49
2022/09/28 20:10:37;;;;;;;7.00;3.00;;;21.30;70.00;;;;;;220279;1270;24396;-49
2022/09/28 20:15:43;;;;;;;7.30;2.60;;;21.30;70.20;;;;;;220482;1270;24458;-46
2022/09/28 20:21:05;;;;;;;7.70;3.00;;;21.30;70.10;;;;;;220356;1270;22659;-48
2022/09/28 20:26:14;;;;;;;6.70;2.60;;;21.20;70.10;;;;;;220297;1267;24338;-52
2022/09/28 20:31:21;;;;;;;9.20;2.70;;;21.20;70.20;;;;;;220371;1270;22546;-48
2022/09/28 20:36:32;;;;;;;6.10;3.00;;;21.20;70.20;;;;;;220301;1268;26046;-48
2022/09/28 20:41:40;;;;;;;7.70;2.90;;;21.20;70.10;;;;;;220620;1268;22807;-48
2022/09/28 20:46:55;;;;;;;5.50;2.60;;;21.20;70.30;;;;;;220457;1268;25375;-50
2022/09/28 20:52:03;;;;;;;8.50;2.90;;;21.10;70.10;;;;;;220171;1268;24209;-52
2022/09/28 20:57:16;;;;;;;6.60;2.60;;;21.20;74.60;;;;;;220286;1267;23026;-49
2022/09/28 21:02:24;;;;;;;6.80;3.10;;;21.20;75.00;;;;;;220380;1268;23705;-49
2022/09/28 21:07:30;;;;;;;11.40;3.40;;;21.20;74.20;;;;;;220223;1270;22703;-47
2022/09/28 21:12:35;;;;;;;6.80;2.80;;;21.30;75.10;;;;;;220498;1270;22713;-46
2022/09/28 21:17:39;;;;;;;7.60;2.80;;;21.30;75.00;;;;;;220625;1268;26494;-50
2022/09/28 21:22:43;;;;;;;6.70;3.40;;;21.30;74.90;;;;;;220549;1268;22534;-51
2022/09/28 21:27:46;;;;;;;6.00;2.60;;;21.30;75.00;;;;;;220356;1267;25380;-49
2022/09/28 21:32:52;;;;;;;6.80;3.00;;;21.20;75.10;;;;;;220516;1268;25370;-48
2022/09/28 21:37:56;;;;;;;6.90;2.60;;;21.30;75.60;;;;;;220414;1267;25370;-49
2022/09/28 21:42:59;;;;;;;4.60;2.20;;;21.30;75.90;;;;;;220327;1267;26521;-47
2022/09/28 21:48:03;;;;;;;6.30;2.40;;;21.30;75.70;;;;;;220166;1271;24308;-51
2022/09/28 21:53:07;;;;;;;6.90;2.80;;;21.20;75.20;;;;;;220370;1268;22541;-48
2022/09/28 21:58:12;;;;;;;5.20;2.40;;;21.20;75.30;;;;;;220138;1268;22549;-50
2022/09/28 22:03:21;;;;;;;6.00;2.90;;;21.20;75.20;;;;;;220311;1267;22523;-49
2022/09/28 22:08:26;;;;;;;5.40;3.00;;;21.20;75.00;;;;;;220757;1268;25233;-47
2022/09/28 22:13:34;;;;;;;7.20;2.70;;;21.20;74.90;;;;;;220529;1269;22543;-46
2022/09/28 22:18:43;;;;;;;4.70;2.80;;;21.20;75.00;;;;;;220382;1268;24229;-49
2022/09/28 22:23:59;;;;;;;4.00;2.40;;;21.10;75.10;;;;;;220388;1268;24374;-51
2022/09/28 22:29:07;;;;;;;5.50;2.70;;;21.10;75.10;;;;;;220453;1269;22555;-50
2022/09/28 22:34:20;;;;;;;6.20;2.50;;;21.10;75.10;;;;;;221251;1268;22545;-48
2022/09/28 22:39:29;;;;;;;7.00;2.40;;;21.10;75.10;;;;;;220336;1268;22544;-50
2022/09/28 22:44:39;;;;;;;;;;;21.20;74.60;;;;;;220105;1270;323856;-47
2022/09/28 22:49:42;;;;;;;5.40;2.70;;;21.20;74.60;;;;;;220734;1268;25311;-50
2022/09/28 22:54:48;;;;;;;6.70;3.40;;;21.10;74.50;;;;;;220732;1270;24348;-51
2022/09/28 22:59:52;;;;;;;5.30;2.60;;;21.10;73.60;;;;;;220359;1271;22551;-51
2022/09/28 23:04:55;;;;;;;6.50;3.10;;;21.10;74.60;;;;;;220286;1268;26493;-49
2022/09/28 23:10:00;;;;;;;4.50;2.70;;;21.00;73.90;;;;;;220340;1268;24336;-49
2022/09/28 23:15:05;;;;;;;4.20;2.50;;;21.00;73.80;;;;;;220312;1271;22534;-48
2022/09/28 23:20:11;;;;;;;4.70;2.40;;;21.00;73.80;;;;;;221290;1268;25297;-46
2022/09/28 23:25:17;;;;;;;4.60;2.60;;;21.00;73.70;;;;;;220674;1268;22543;-49
2022/09/28 23:30:20;;;;;;;4.40;2.40;;;21.00;73.60;;;;;;220782;1268;22603;-49
2022/09/28 23:35:24;;;;;;;4.10;2.40;;;20.90;73.50;;;;;;220182;1268;23946;-48
2022/09/28 23:40:27;;;;;;;3.70;2.30;;;21.00;73.80;;;;;;219926;1268;24321;-47
2022/09/28 23:45:31;;;;;;;3.80;2.20;;;20.90;73.40;;;;;;220436;1268;22569;-47
2022/09/28 23:50:35;;;;;;;4.70;2.40;;;20.90;73.30;;;;;;220366;1268;24209;-48
2022/09/28 23:55:41;;;;;;;3.80;2.40;;;20.90;73.20;;;;;;220350;1268;24758;-49
